createdAt,value
2018-11-21T00:03:55.772Z,9.60
2018-11-21T00:09:00.683Z,9.50
2018-11-21T00:14:05.754Z,9.60
2018-11-21T00:19:10.494Z,9.60
2018-11-21T00:29:28.175Z,10.20
2018-11-21T00:34:33.014Z,10.50
2018-11-21T00:39:38.025Z,10.50
2018-11-21T00:44:42.851Z,10.40
2018-11-21T00:49:47.670Z,10.30
2018-11-21T00:54:52.569Z,10.10
2018-11-21T00:59:57.403Z,10.00
2018-11-21T01:05:02.223Z,10.70
2018-11-21T01:10:07.077Z,10.90
2018-11-21T01:15:11.869Z,10.60
2018-11-21T01:20:16.658Z,10.40
2018-11-21T01:25:21.863Z,10.20
2018-11-21T01:30:26.565Z,10.20
2018-11-21T01:35:31.355Z,10.40
2018-11-21T01:40:36.084Z,10.50
2018-11-21T01:45:40.899Z,10.20
2018-11-21T01:50:45.724Z,10.10
2018-11-21T01:55:50.741Z,10.00
2018-11-21T02:00:55.522Z,10.00
2018-11-21T02:06:00.219Z,9.90
2018-11-21T02:11:05.316Z,9.80
2018-11-21T02:16:10.213Z,9.60
2018-11-21T02:21:14.909Z,9.50
2018-11-21T02:26:19.783Z,9.70
2018-11-21T02:31:24.537Z,10.10
2018-11-21T02:36:29.321Z,10.50
2018-11-21T02:41:34.087Z,10.60
2018-11-21T02:46:38.851Z,10.70
2018-11-21T02:51:43.609Z,10.60
2018-11-21T02:57:19.700Z,10.60
2018-11-21T03:02:24.465Z,10.30
2018-11-21T03:07:29.182Z,10.20
2018-11-21T03:12:33.877Z,10.10
2018-11-21T03:17:38.623Z,10.30
2018-11-21T03:22:43.397Z,10.70
2018-11-21T03:27:48.241Z,10.90
2018-11-21T03:32:53.055Z,11.10
2018-11-21T03:37:57.791Z,11.20
2018-11-21T03:43:02.503Z,11.20
2018-11-21T03:48:07.259Z,11.30
2018-11-21T03:53:12.030Z,11.20
2018-11-21T03:58:16.742Z,11.10
2018-11-21T04:03:21.452Z,11.20
2018-11-21T04:08:26.371Z,11.20
2018-11-21T04:13:31.111Z,11.10
2018-11-21T04:18:36.014Z,11.10
2018-11-21T04:23:40.772Z,11.20
2018-11-21T04:28:45.770Z,11.10
2018-11-21T04:33:50.709Z,11.20
2018-11-21T04:38:55.408Z,11.10
2018-11-21T04:44:00.139Z,11.10
2018-11-21T04:49:04.807Z,11.10
2018-11-21T04:54:09.512Z,11.10
2018-11-21T04:59:14.207Z,11.20
2018-11-21T05:04:18.993Z,11.40
2018-11-21T05:09:23.768Z,11.50
2018-11-21T05:14:28.530Z,11.20
2018-11-21T05:19:33.238Z,11.20
2018-11-21T05:24:37.931Z,11.20
2018-11-21T05:29:42.594Z,11.30
2018-11-21T05:34:47.675Z,11.30
2018-11-21T05:39:52.383Z,11.10
2018-11-21T05:44:57.170Z,10.80
2018-11-21T05:50:02.036Z,10.60
2018-11-21T05:55:07.265Z,10.40
2018-11-21T06:00:15.372Z,10.60
2018-11-21T06:05:18.705Z,10.80
2018-11-21T06:10:23.385Z,10.80
2018-11-21T06:15:28.075Z,10.90
2018-11-21T06:20:32.845Z,11.20
2018-11-21T06:25:37.576Z,11.40
2018-11-21T06:30:42.334Z,11.30
2018-11-21T06:35:47.166Z,11.30
2018-11-21T06:40:51.838Z,11.30
2018-11-21T06:45:56.611Z,11.30
2018-11-21T06:51:01.377Z,11.30
2018-11-21T06:56:06.187Z,11.50
2018-11-21T07:01:10.963Z,11.60
2018-11-21T07:06:15.820Z,11.50
2018-11-21T07:11:20.553Z,11.30
2018-11-21T07:16:25.550Z,11.30
2018-11-21T07:21:30.376Z,11.40
2018-11-21T07:26:35.170Z,11.40
2018-11-21T07:31:39.990Z,11.40
2018-11-21T07:36:51.872Z,11.40
2018-11-21T07:41:56.638Z,11.60
2018-11-21T07:47:01.399Z,11.60
2018-11-21T07:52:06.327Z,11.70
2018-11-21T07:57:32.288Z,11.90
2018-11-21T08:02:39.133Z,12.20
2018-11-21T08:07:54.846Z,12.40
2018-11-21T08:13:37.011Z,12.50
2018-11-21T08:18:55.787Z,12.70
2018-11-21T08:24:22.003Z,12.80
2018-11-21T08:29:33.967Z,12.80
2018-11-21T08:34:37.132Z,12.90
2018-11-21T08:39:42.675Z,13.00
2018-11-21T08:44:46.806Z,13.20
2018-11-21T08:49:51.593Z,13.20
2018-11-21T08:54:57.109Z,13.30
2018-11-21T09:00:01.746Z,13.40
2018-11-21T09:05:08.160Z,13.60
2018-11-21T09:10:13.838Z,13.70
2018-11-21T09:15:18.860Z,13.80
2018-11-21T09:20:23.675Z,13.90
2018-11-21T09:25:28.608Z,14.10
2018-11-21T09:30:33.443Z,14.20
2018-11-21T09:35:38.321Z,14.40
2018-11-21T09:40:43.018Z,14.50
2018-11-21T09:45:47.771Z,14.60
2018-11-21T09:50:52.604Z,14.80
2018-11-21T09:55:57.452Z,15.00
2018-11-21T10:01:38.721Z,15.10
2018-11-21T10:06:44.921Z,15.10
2018-11-21T10:11:49.600Z,15.50
2018-11-21T10:16:54.365Z,15.50
2018-11-21T10:21:59.444Z,15.60
2018-11-21T10:27:04.311Z,15.50
2018-11-21T10:32:09.059Z,15.70
2018-11-21T10:37:13.853Z,15.80
2018-11-21T10:42:18.563Z,15.90
2018-11-21T10:47:23.269Z,16.20
2018-11-21T10:52:31.548Z,16.70
2018-11-21T10:57:32.905Z,17.00
2018-11-21T11:02:55.284Z,16.90
2018-11-21T11:08:24.784Z,16.50
2018-11-21T11:13:58.283Z,16.30
2018-11-21T11:19:30.929Z,16.50
2018-11-21T11:24:57.814Z,16.90
2018-11-21T11:30:24.195Z,17.00
2018-11-21T11:35:46.503Z,17.40
2018-11-21T11:41:08.654Z,18.10
2018-11-21T11:46:32.512Z,18.20
2018-11-21T11:51:55.308Z,18.40
2018-11-21T11:57:24.661Z,18.00
2018-11-21T12:02:47.046Z,17.90
2018-11-21T12:08:08.661Z,17.90
2018-11-21T12:13:41.547Z,18.20
2018-11-21T12:19:08.238Z,18.00
2018-11-21T12:24:30.791Z,18.00
2018-11-21T12:29:53.218Z,18.40
2018-11-21T12:35:28.917Z,18.70
2018-11-21T12:40:51.398Z,19.10
2018-11-21T12:46:21.368Z,19.00
2018-11-21T12:51:47.780Z,19.00
2018-11-21T12:57:10.015Z,19.10
2018-11-21T13:02:32.465Z,19.30
2018-11-21T13:07:54.879Z,18.90
2018-11-21T13:13:18.648Z,18.70
2018-11-21T13:18:49.095Z,18.80
2018-11-21T13:24:11.693Z,19.10
2018-11-21T13:29:36.286Z,18.70
2018-11-21T13:35:00.021Z,18.70
2018-11-21T13:40:28.493Z,17.90
2018-11-21T13:45:50.991Z,17.80
2018-11-21T13:51:21.677Z,19.80
2018-11-21T13:56:27.038Z,21.20
2018-11-21T14:01:31.824Z,21.80
2018-11-21T14:06:36.566Z,22.00
2018-11-21T14:11:41.392Z,22.40
2018-11-21T14:16:46.122Z,22.30
2018-11-21T14:21:55.780Z,22.60
2018-11-21T14:26:58.118Z,21.70
2018-11-21T14:32:02.036Z,20.30
2018-11-21T14:37:06.912Z,19.50
2018-11-21T14:42:30.287Z,19.30
2018-11-21T14:47:35.011Z,20.30
2018-11-21T14:52:39.887Z,21.60
2018-11-21T14:57:44.669Z,22.00
2018-11-21T15:02:49.428Z,22.20
2018-11-21T15:07:54.346Z,22.70
2018-11-21T15:12:59.142Z,22.60
2018-11-21T15:18:03.961Z,22.30
2018-11-21T15:23:08.793Z,21.10
2018-11-21T15:28:13.544Z,19.90
2018-11-21T15:33:18.533Z,19.40
2018-11-21T15:38:23.304Z,20.20
2018-11-21T15:43:28.190Z,19.70
2018-11-21T15:48:32.913Z,19.20
2018-11-21T15:53:37.668Z,18.00
2018-11-21T15:58:42.537Z,17.30
2018-11-21T16:03:47.262Z,16.90
2018-11-21T16:08:52.252Z,16.70
2018-11-21T16:13:57.235Z,16.50
2018-11-21T16:19:02.578Z,16.30
2018-11-21T16:24:07.454Z,16.20
2018-11-21T16:29:12.168Z,15.90
2018-11-21T16:34:17.014Z,15.70
2018-11-21T16:39:21.900Z,15.60
2018-11-21T16:44:26.713Z,15.30
2018-11-21T16:49:33.876Z,15.10
2018-11-21T16:54:38.778Z,14.80
2018-11-21T16:59:43.577Z,15.00
2018-11-21T17:04:48.342Z,15.00
2018-11-21T17:09:53.184Z,15.10
2018-11-21T17:14:57.905Z,15.20
2018-11-21T17:20:03.567Z,15.20
2018-11-21T17:25:11.354Z,14.90
2018-11-21T17:30:17.265Z,14.60
2018-11-21T17:35:22.491Z,14.50
2018-11-21T17:40:39.617Z,14.60
2018-11-21T17:45:44.478Z,14.50
2018-11-21T17:50:49.235Z,14.40
2018-11-21T17:55:54.579Z,14.10
2018-11-21T18:01:02.427Z,13.70
2018-11-21T18:06:07.290Z,13.70
2018-11-21T18:11:12.010Z,13.60
2018-11-21T18:16:17.824Z,13.70
2018-11-21T18:21:21.725Z,14.10
2018-11-21T18:26:26.421Z,14.20
2018-11-21T18:31:31.417Z,14.10
2018-11-21T18:36:36.488Z,13.80
2018-11-21T18:41:41.268Z,13.80
2018-11-21T18:46:46.005Z,13.20
2018-11-21T18:51:50.782Z,13.20
2018-11-21T18:57:39.838Z,13.40
2018-11-21T19:02:44.642Z,13.10
2018-11-21T19:07:49.424Z,13.10
2018-11-21T19:12:54.814Z,13.10
2018-11-21T19:17:59.551Z,12.90
2018-11-21T19:23:04.282Z,12.90
2018-11-21T19:28:09.131Z,12.80
2018-11-21T19:33:13.886Z,12.70
2018-11-21T19:38:18.729Z,12.60
2018-11-21T19:43:24.153Z,12.30
2018-11-21T19:48:29.733Z,12.20
2018-11-21T19:53:34.547Z,11.90
2018-11-21T19:58:39.565Z,11.80
2018-11-21T20:03:44.320Z,12.00
2018-11-21T20:08:49.067Z,12.40
2018-11-21T20:13:53.872Z,12.70
2018-11-21T20:18:58.694Z,13.40
2018-11-21T20:24:03.518Z,13.80
2018-11-21T20:29:08.553Z,13.90
2018-11-21T20:34:13.409Z,13.90
2018-11-21T20:39:18.179Z,13.80
2018-11-21T20:44:22.984Z,13.90
2018-11-21T20:49:27.763Z,13.90
2018-11-21T20:54:32.650Z,13.90
2018-11-21T20:59:43.326Z,13.90
2018-11-21T21:04:48.088Z,13.80
2018-11-21T21:09:53.223Z,13.90
2018-11-21T21:14:58.089Z,13.90
2018-11-21T21:20:03.091Z,13.90
2018-11-21T21:25:10.138Z,13.90
2018-11-21T21:30:19.821Z,13.80
2018-11-21T21:35:25.791Z,13.70
2018-11-21T21:40:30.648Z,13.70
2018-11-21T21:45:35.414Z,13.50
2018-11-21T21:50:40.112Z,13.40
2018-11-21T21:55:44.899Z,13.60
2018-11-21T22:00:49.859Z,13.70
2018-11-21T22:05:54.662Z,13.70
2018-11-21T22:10:59.448Z,13.80
2018-11-21T22:16:04.193Z,13.80
2018-11-21T22:21:09.618Z,13.80
2018-11-21T22:26:14.471Z,13.80
2018-11-21T22:31:19.307Z,13.90
2018-11-21T22:36:24.084Z,13.80
2018-11-21T22:41:28.795Z,13.60
2018-11-21T22:46:33.520Z,13.00
2018-11-21T22:51:39.523Z,12.70
2018-11-21T22:56:44.420Z,12.60
2018-11-21T23:01:49.123Z,12.70
2018-11-21T23:06:53.968Z,12.60
